TimeMST,TemperatureF,Dew PointF,Humidity,Sea Level PressureIn,VisibilityMPH,Wind Direction,Wind SpeedMPH,Gust SpeedMPH,PrecipitationIn,Events,Conditions,WindDirDegrees,DateUTC
12:55 AM,59.0,48.9,69,29.92,10.0,SSE,9.2,-,N/A,,Clear,150,2011-11-24 07:55:00
1:55 AM,59.0,50.0,72,29.90,10.0,SE,4.6,-,N/A,,Clear,140,2011-11-24 08:55:00
2:55 AM,59.0,52.0,78,29.90,10.0,SE,9.2,-,N/A,,Clear,140,2011-11-24 09:55:00
3:55 AM,59.0,53.1,81,29.89,10.0,ESE,9.2,-,N/A,,Clear,120,2011-11-24 10:55:00
4:55 AM,54.0,45.0,72,29.92,10.0,NNE,5.8,-,N/A,,Clear,30,2011-11-24 11:55:00
5:55 AM,53.1,43.0,69,29.92,10.0,NNE,5.8,-,N/A,,Clear,20,2011-11-24 12:55:00
6:55 AM,53.1,45.0,74,29.92,10.0,NNE,3.5,-,N/A,,Clear,30,2011-11-24 13:55:00
7:55 AM,52.0,45.0,77,29.93,10.0,NNE,6.9,-,N/A,,Clear,30,2011-11-24 14:55:00
8:55 AM,57.0,46.9,69,29.93,10.0,NE,6.9,-,N/A,,Clear,50,2011-11-24 15:55:00
9:55 AM,63.0,48.0,58,29.95,10.0,NE,8.1,-,N/A,,Partly Cloudy,50,2011-11-24 16:55:00
10:55 AM,69.1,50.0,51,29.94,10.0,Variable,3.5,-,N/A,,Partly Cloudy,0,2011-11-24 17:55:00
11:55 AM,70.0,51.1,51,29.94,10.0,WSW,9.2,-,N/A,,Clear,240,2011-11-24 18:55:00
12:55 PM,69.1,51.1,53,29.92,10.0,Variable,5.8,-,N/A,,Scattered Clouds,0,2011-11-24 19:55:00
1:55 PM,70.0,48.0,46,29.90,10.0,WSW,9.2,-,N/A,,Mostly Cloudy,250,2011-11-24 20:55:00
2:55 PM,71.1,43.0,36,29.88,10.0,WNW,12.7,-,N/A,,Mostly Cloudy,290,2011-11-24 21:55:00
3:55 PM,70.0,41.0,35,29.88,10.0,WNW,16.1,-,N/A,,Clear,290,2011-11-24 22:55:00
4:55 PM,68.0,37.9,33,29.90,10.0,WNW,13.8,21.9,N/A,,Overcast,300,2011-11-24 23:55:00
5:55 PM,66.0,37.0,34,29.91,10.0,WNW,10.4,-,N/A,,Overcast,290,2011-11-25 00:55:00
6:55 PM,63.0,37.9,40,29.95,10.0,West,9.2,-,N/A,,Mostly Cloudy,280,2011-11-25 01:55:00
7:55 PM,62.1,37.9,41,29.96,10.0,WNW,8.1,-,N/A,,Partly Cloudy,290,2011-11-25 02:55:00
8:55 PM,61.0,37.9,42,29.98,10.0,WNW,9.2,-,N/A,,Overcast,290,2011-11-25 03:55:00
9:55 PM,57.9,39.0,49,29.99,10.0,WNW,8.1,-,N/A,,Partly Cloudy,290,2011-11-25 04:55:00
10:55 PM,55.9,39.9,55,29.99,10.0,West,9.2,-,N/A,,Clear,280,2011-11-25 05:55:00
11:55 PM,55.9,39.9,55,30.00,10.0,WNW,5.8,-,N/A,,Clear,290,2011-11-25 06:55:00